createdAt,value
2023-02-03T00:08:05.463Z,0.2
2023-02-03T00:18:05.453Z,0.01
2023-02-03T00:28:05.613Z,0.31
2023-02-03T00:38:05.441Z,0.12
2023-02-03T00:48:05.478Z,-0.16
2023-02-03T00:58:05.444Z,-0.45
2023-02-03T01:08:05.502Z,-0.71
2023-02-03T01:18:05.469Z,-0.9
2023-02-03T01:28:05.608Z,-1.12
2023-02-03T01:38:05.503Z,-1.03
2023-02-03T01:48:05.549Z,-1.35
2023-02-03T01:58:05.509Z,-1.6
2023-02-03T02:08:05.538Z,-1.7
2023-02-03T02:18:05.532Z,-1.62
2023-02-03T02:28:05.596Z,-1.45
2023-02-03T02:38:05.519Z,-1.18
2023-02-03T02:48:05.594Z,-0.92
2023-02-03T02:58:05.554Z,-0.65
2023-02-03T03:08:05.568Z,-0.56
2023-02-03T03:18:05.585Z,-0.42
2023-02-03T03:28:05.725Z,-0.26
2023-02-03T03:38:05.560Z,-0.14
2023-02-03T03:48:05.604Z,-0.06
2023-02-03T03:58:05.586Z,-0.01
2023-02-03T04:08:05.648Z,0.08
2023-02-03T04:18:05.589Z,0.14
2023-02-03T04:28:05.721Z,0.2
2023-02-03T04:38:05.603Z,0.24
2023-02-03T04:48:05.652Z,0.22
2023-02-03T04:58:05.630Z,0.19
2023-02-03T05:08:05.634Z,0.15
2023-02-03T05:18:05.707Z,0.07
2023-02-03T05:28:05.742Z,0.04
2023-02-03T05:38:05.698Z,0.01
2023-02-03T05:48:05.656Z,0
2023-02-03T05:58:05.685Z,0
2023-02-03T06:08:05.662Z,-0.08
2023-02-03T06:18:05.673Z,-0.12
2023-02-03T06:28:05.749Z,-0.14
2023-02-03T06:38:05.757Z,-0.18
2023-02-03T06:48:05.683Z,-0.19
2023-02-03T06:58:05.696Z,-0.17
2023-02-03T07:08:05.696Z,-0.08
2023-02-03T07:18:05.673Z,-0.04
2023-02-03T07:28:05.762Z,-0.05
2023-02-03T07:38:05.685Z,0.23
2023-02-03T07:48:05.755Z,0.28
2023-02-03T07:58:05.727Z,0.34
2023-02-03T08:08:05.738Z,0.95
2023-02-03T08:18:05.729Z,0.99
2023-02-03T08:28:05.844Z,1.24
2023-02-03T08:38:05.742Z,2.19
2023-02-03T08:48:05.749Z,2.68
2023-02-03T08:58:05.736Z,3.86
2023-02-03T09:08:05.760Z,4.94
2023-02-03T09:18:05.740Z,4.53
2023-02-03T09:28:05.784Z,5.23
2023-02-03T09:38:05.716Z,5.68
2023-02-03T09:48:05.761Z,5.48
2023-02-03T09:58:05.755Z,6.68
2023-02-03T10:08:05.802Z,7.4
2023-02-03T10:18:05.734Z,7.87
2023-02-03T10:28:05.813Z,7.77
2023-02-03T10:38:05.723Z,7.99
2023-02-03T10:48:05.734Z,8.21
2023-02-03T10:58:05.728Z,7.95
2023-02-03T11:08:05.750Z,8.72
2023-02-03T11:18:05.699Z,9.37
2023-02-03T11:28:05.784Z,9.33
2023-02-03T11:38:05.719Z,8.66
2023-02-03T11:48:05.739Z,7.82
2023-02-03T11:58:05.679Z,7.59
2023-02-03T12:08:05.726Z,7.21
2023-02-03T12:18:05.691Z,6.86
2023-02-03T12:28:05.809Z,6.65
2023-02-03T12:38:05.712Z,6.57
2023-02-03T12:48:05.780Z,6.66
2023-02-03T12:58:05.706Z,6.54
2023-02-03T13:08:05.729Z,6.66
2023-02-03T13:18:05.735Z,6.44
2023-02-03T13:28:05.753Z,6.71
2023-02-03T13:38:05.712Z,6.91
2023-02-03T13:48:05.716Z,7.12
2023-02-03T13:58:05.683Z,7.06
2023-02-03T14:08:05.723Z,7.24
2023-02-03T14:18:05.673Z,7.18
2023-02-03T14:28:05.796Z,7.1
2023-02-03T14:38:05.684Z,7.01
2023-02-03T14:48:05.704Z,6.93
2023-02-03T14:58:05.699Z,6.73
2023-02-03T15:08:05.742Z,6.39
2023-02-03T15:18:05.685Z,6.13
2023-02-03T15:28:05.773Z,5.69
2023-02-03T15:38:05.671Z,5.4
2023-02-03T15:48:05.737Z,4.93
2023-02-03T15:58:05.701Z,4.39
2023-02-03T16:08:05.691Z,3.88
2023-02-03T16:18:05.689Z,3.63
2023-02-03T16:28:05.725Z,3.68
2023-02-03T16:38:05.689Z,3.5
2023-02-03T16:48:05.721Z,3.34
2023-02-03T16:58:05.725Z,3.46
2023-02-03T17:08:05.767Z,3.33
2023-02-03T17:18:05.726Z,3.47
2023-02-03T17:28:05.754Z,3.47
2023-02-03T17:38:05.696Z,3.52
2023-02-03T17:58:05.701Z,5.44
2023-02-03T18:08:08.981Z,5.5
2023-02-03T18:18:05.702Z,4.74
2023-02-03T18:28:05.702Z,4.92
2023-02-03T18:38:05.712Z,4.65
2023-02-03T18:48:05.687Z,4.6
2023-02-03T18:58:05.718Z,4.58
2023-02-03T19:08:05.772Z,4.8
2023-02-03T19:18:05.698Z,5.76
2023-02-03T19:28:06.725Z,6.29
2023-02-03T19:38:05.760Z,6.32
2023-02-03T19:48:05.702Z,6.02
2023-02-03T19:58:05.719Z,6.33
2023-02-03T20:08:05.708Z,6.27
2023-02-03T20:18:05.729Z,6.18
2023-02-03T20:28:05.730Z,6.06
2023-02-03T20:38:05.740Z,5.39
2023-02-03T20:48:05.711Z,5.3
2023-02-03T20:58:05.747Z,5.68
2023-02-03T21:08:05.725Z,5.9
2023-02-03T21:18:05.710Z,5.93
2023-02-03T21:28:05.723Z,5.84
2023-02-03T21:38:05.723Z,5.59
2023-02-03T21:48:05.753Z,5.36
2023-02-03T21:58:05.757Z,5.1
2023-02-03T22:08:05.725Z,5.11
2023-02-03T22:18:05.758Z,4.98
2023-02-03T22:28:05.817Z,5.34
2023-02-03T22:38:05.754Z,5.15
2023-02-03T22:48:05.719Z,5.02
2023-02-03T22:58:05.751Z,4.92
2023-02-03T23:08:05.706Z,5.04
2023-02-03T23:18:05.724Z,5.31
2023-02-03T23:28:05.749Z,5.19
2023-02-03T23:38:05.753Z,5.05
2023-02-03T23:48:05.720Z,4.77
2023-02-03T23:58:05.749Z,4.59
